createdAt,value
2023-04-08T00:00:08.108Z,99.37
2023-04-08T00:01:08.070Z,99.26
2023-04-08T00:02:08.135Z,99.57
2023-04-08T00:03:08.242Z,99.26
2023-04-08T00:04:08.254Z,99.47
2023-04-08T00:05:08.021Z,99.16
2023-04-08T00:06:08.015Z,99.47
2023-04-08T00:07:08.018Z,99.47
2023-04-08T00:08:08.023Z,99.78
2023-04-08T00:09:07.989Z,99.68
2023-04-08T00:10:07.988Z,98.85
2023-04-08T00:11:07.950Z,99.16
2023-04-08T00:12:07.941Z,99.47
2023-04-08T00:13:07.976Z,99.16
2023-04-08T00:14:07.936Z,98.96
2023-04-08T00:15:07.932Z,99.37
2023-04-08T00:16:07.902Z,99.47
2023-04-08T00:17:07.981Z,99.21
2023-04-08T00:18:08.856Z,99.78
2023-04-08T00:19:07.887Z,99.47
2023-04-08T00:20:08.115Z,99.37
2023-04-08T00:21:07.850Z,99.47
2023-04-08T00:22:07.863Z,99.68
2023-04-08T00:23:07.825Z,99.78
2023-04-08T00:24:07.846Z,99.68
2023-04-08T00:25:07.799Z,99.52
2023-04-08T00:26:07.787Z,99.31
2023-04-08T00:27:07.780Z,99.72
2023-04-08T00:28:07.780Z,99.52
2023-04-08T00:29:07.752Z,99.93
2023-04-08T00:30:07.836Z,99.99
2023-04-08T00:31:07.814Z,99.99
2023-04-08T00:32:07.778Z,99.99
2023-04-08T00:33:07.770Z,99.93
2023-04-08T00:34:07.712Z,99.88
2023-04-08T00:35:15.355Z,99.78
2023-04-08T00:36:07.688Z,99.88
2023-04-08T00:37:07.689Z,99.99
2023-04-08T00:38:07.652Z,99.52
2023-04-08T00:39:07.640Z,99.37
2023-04-08T00:40:07.655Z,99.37
2023-04-08T00:41:07.636Z,99.47
2023-04-08T00:42:07.632Z,99.57
2023-04-08T00:43:07.601Z,99.37
2023-04-08T00:44:07.591Z,99.37
2023-04-08T00:45:07.580Z,99.37
2023-04-08T00:46:07.590Z,99.37
2023-04-08T00:47:07.593Z,99.47
2023-04-08T00:48:07.551Z,99.78
2023-04-08T00:49:08.348Z,99.26
2023-04-08T00:50:07.524Z,99.78
2023-04-08T00:51:07.538Z,98.75
2023-04-08T00:52:07.505Z,99.78
2023-04-08T00:53:07.490Z,99.47
2023-04-08T00:54:07.501Z,99.37
2023-04-08T00:55:07.466Z,99.47
2023-04-08T00:56:07.500Z,99.37
2023-04-08T00:57:07.473Z,99.37
2023-04-08T00:58:07.442Z,99.26
2023-04-08T00:59:07.432Z,99.78
2023-04-08T01:00:07.469Z,99.43
2023-04-08T01:01:07.489Z,99.32
2023-04-08T01:02:07.515Z,99.52
2023-04-08T01:03:07.555Z,99.22
2023-04-08T01:04:07.430Z,99.01
2023-04-08T01:05:07.401Z,99.01
2023-04-08T01:06:07.386Z,98.80
2023-04-08T01:07:07.357Z,99.01
2023-04-08T01:08:07.338Z,98.86
2023-04-08T01:09:07.309Z,98.70
2023-04-08T01:10:07.303Z,98.50
2023-04-08T01:11:07.287Z,98.08
2023-04-08T01:12:07.324Z,98.39
2023-04-08T01:13:07.267Z,98.08
2023-04-08T01:14:07.261Z,98.70
2023-04-08T01:15:07.254Z,98.60
2023-04-08T01:16:07.264Z,98.91
2023-04-08T01:17:07.265Z,98.70
2023-04-08T01:18:07.226Z,98.50
2023-04-08T01:19:07.210Z,98.85
2023-04-08T01:20:07.238Z,99.01
2023-04-08T01:21:07.179Z,98.96
2023-04-08T01:22:07.189Z,98.96
2023-04-08T01:23:07.154Z,99.16
2023-04-08T01:24:07.152Z,99.26
2023-04-08T01:25:07.132Z,99.57
2023-04-08T01:26:07.140Z,99.57
2023-04-08T01:27:07.161Z,99.37
2023-04-08T01:28:07.129Z,99.37
2023-04-08T01:29:07.106Z,99.82
2023-04-08T01:30:07.107Z,99.68
2023-04-08T01:31:07.125Z,99.99
2023-04-08T01:32:07.066Z,99.88
2023-04-08T01:33:07.042Z,99.99
2023-04-08T01:34:07.055Z,99.78
2023-04-08T01:35:07.028Z,99.78
2023-04-08T01:36:07.090Z,99.88
2023-04-08T01:37:07.026Z,99.99
2023-04-08T01:38:07.011Z,99.68
2023-04-08T01:39:06.984Z,99.99
2023-04-08T01:40:06.991Z,99.99
2023-04-08T01:41:06.962Z,99.99
2023-04-08T01:42:06.967Z,99.88
2023-04-08T01:43:06.949Z,99.88
2023-04-08T01:44:06.995Z,99.47
2023-04-08T01:45:06.956Z,99.78
2023-04-08T01:46:06.909Z,99.99
2023-04-08T01:47:07.095Z,99.16
2023-04-08T01:48:06.968Z,99.57
2023-04-08T01:49:06.897Z,99.26
2023-04-08T01:50:06.865Z,99.47
2023-04-08T01:51:06.867Z,99.26
2023-04-08T01:52:06.849Z,99.68
2023-04-08T01:53:06.842Z,99.47
2023-04-08T01:54:06.844Z,99.47
2023-04-08T01:55:06.814Z,99.37
2023-04-08T01:56:06.822Z,99.31
2023-04-08T01:57:06.786Z,99.31
2023-04-08T01:58:06.774Z,99.52
2023-04-08T01:59:06.777Z,99.99
2023-04-08T02:00:06.798Z,99.99
2023-04-08T02:01:06.921Z,99.82
2023-04-08T02:02:06.810Z,99.68
2023-04-08T02:03:07.071Z,99.68
2023-04-08T02:04:06.800Z,99.88
2023-04-08T02:05:06.717Z,99.78
2023-04-08T02:06:06.693Z,99.88
2023-04-08T02:07:06.676Z,99.88
2023-04-08T02:08:06.665Z,99.57
2023-04-08T02:09:06.671Z,99.99
2023-04-08T02:10:06.641Z,99.78
2023-04-08T02:11:06.658Z,99.68
2023-04-08T02:12:06.623Z,99.99
2023-04-08T02:13:06.647Z,99.68
2023-04-08T02:14:06.602Z,99.16
2023-04-08T02:15:06.742Z,99.37
2023-04-08T02:16:06.614Z,99.26
2023-04-08T02:17:06.566Z,99.47
2023-04-08T02:18:06.603Z,99.37
2023-04-08T02:19:06.558Z,99.22
2023-04-08T02:20:06.548Z,99.26
2023-04-08T02:21:06.556Z,99.57
2023-04-08T02:22:06.507Z,99.43
2023-04-08T02:23:06.522Z,99.16
2023-04-08T02:24:06.488Z,99.57
2023-04-08T02:25:06.484Z,99.26
2023-04-08T02:26:06.467Z,99.47
2023-04-08T02:27:06.462Z,99.68
2023-04-08T02:28:06.465Z,99.88
2023-04-08T02:29:06.444Z,99.99
2023-04-08T02:30:07.378Z,99.99
2023-04-08T02:31:06.432Z,99.78
2023-04-08T02:32:06.434Z,99.78
2023-04-08T02:33:06.432Z,99.78
2023-04-08T02:34:06.401Z,99.68
2023-04-08T02:35:06.370Z,99.78
2023-04-08T02:36:06.357Z,99.99
2023-04-08T02:37:06.344Z,99.99
2023-04-08T02:38:06.332Z,99.78
2023-04-08T02:39:06.503Z,99.99
2023-04-08T02:40:06.317Z,99.37
2023-04-08T02:41:06.315Z,99.99
2023-04-08T02:42:06.286Z,99.47
2023-04-08T02:43:06.284Z,99.57
2023-04-08T02:44:06.399Z,99.88
2023-04-08T02:45:06.259Z,99.63
2023-04-08T02:46:06.324Z,99.78
2023-04-08T02:47:06.241Z,99.68
2023-04-08T02:48:06.463Z,99.88
2023-04-08T02:49:06.228Z,99.57
2023-04-08T02:50:06.208Z,99.63
2023-04-08T02:51:06.226Z,99.52
2023-04-08T02:52:06.182Z,99.57
2023-04-08T02:53:06.164Z,99.52
2023-04-08T02:54:06.201Z,99.63
2023-04-08T02:55:06.143Z,99.63
2023-04-08T02:56:06.325Z,99.73
2023-04-08T02:57:06.138Z,99.43
2023-04-08T02:58:06.150Z,99.22
2023-04-08T02:59:06.112Z,99.16
2023-04-08T03:00:06.091Z,99.52
2023-04-08T03:01:06.135Z,98.80
2023-04-08T03:02:06.269Z,99.73
2023-04-08T03:03:06.236Z,99.11
2023-04-08T03:04:06.186Z,99.43
2023-04-08T03:05:06.049Z,99.43
2023-04-08T03:06:06.018Z,99.32
2023-04-08T03:07:08.101Z,99.01
2023-04-08T03:08:06.009Z,98.80
2023-04-08T03:09:06.000Z,99.17
2023-04-08T03:10:05.976Z,98.91
2023-04-08T03:11:05.972Z,99.11
2023-04-08T03:12:05.968Z,98.91
2023-04-08T03:13:05.946Z,98.50
2023-04-08T03:14:05.928Z,99.22
2023-04-08T03:15:05.927Z,99.11
2023-04-08T03:16:05.965Z,99.52
2023-04-08T03:17:05.905Z,99.22
2023-04-08T03:18:05.956Z,99.43
2023-04-08T03:19:05.878Z,99.52
2023-04-08T03:20:05.897Z,99.63
2023-04-08T03:21:05.872Z,99.63
2023-04-08T03:22:05.842Z,99.52
2023-04-08T03:23:05.841Z,99.73
2023-04-08T03:24:05.826Z,99.43
2023-04-08T03:25:05.816Z,99.73
2023-04-08T03:26:05.811Z,99.68
2023-04-08T03:27:05.789Z,99.57
2023-04-08T03:28:05.776Z,99.78
2023-04-08T03:29:05.788Z,99.78
2023-04-08T03:30:05.773Z,99.99
2023-04-08T03:31:05.746Z,99.78
2023-04-08T03:32:05.785Z,99.68
2023-04-08T03:33:07.534Z,99.78
2023-04-08T03:34:05.717Z,99.68
2023-04-08T03:35:05.731Z,99.68
2023-04-08T03:36:05.779Z,99.68
2023-04-08T03:37:05.859Z,99.84
2023-04-08T03:38:05.667Z,99.78
2023-04-08T03:39:05.688Z,99.78
2023-04-08T03:40:05.655Z,99.78
2023-04-08T03:41:05.643Z,99.37
2023-04-08T03:42:05.630Z,99.68
2023-04-08T03:43:05.633Z,99.99
2023-04-08T03:44:05.612Z,99.99
2023-04-08T03:45:05.601Z,99.99
2023-04-08T03:46:05.593Z,99.99
2023-04-08T03:47:05.568Z,99.99
2023-04-08T03:48:05.602Z,99.99
2023-04-08T03:49:05.568Z,99.99
2023-04-08T03:50:05.552Z,99.99
2023-04-08T03:51:05.611Z,99.78
2023-04-08T03:52:05.535Z,99.99
2023-04-08T03:53:05.518Z,99.99
2023-04-08T03:54:05.498Z,99.99
2023-04-08T03:55:05.481Z,99.99
2023-04-08T03:56:05.478Z,99.99
2023-04-08T03:57:05.455Z,99.99
2023-04-08T03:58:05.442Z,99.99
2023-04-08T03:59:05.448Z,99.99
2023-04-08T04:00:05.433Z,99.84
2023-04-08T04:01:05.411Z,99.99
2023-04-08T04:02:05.611Z,99.94
2023-04-08T04:03:05.723Z,99.99
2023-04-08T04:04:05.604Z,99.78
2023-04-08T04:05:05.399Z,99.99
2023-04-08T04:06:05.355Z,99.78
2023-04-08T04:07:05.352Z,99.99
2023-04-08T04:08:05.353Z,99.99
2023-04-08T04:09:05.349Z,99.94
2023-04-08T04:10:05.315Z,99.84
2023-04-08T04:11:05.308Z,99.52
2023-04-08T04:12:05.289Z,99.84
2023-04-08T04:13:05.277Z,99.94
2023-04-08T04:14:05.285Z,99.94
2023-04-08T04:15:05.277Z,99.94
2023-04-08T04:16:05.304Z,99.52
2023-04-08T04:17:05.237Z,99.99
2023-04-08T04:18:05.283Z,99.94
2023-04-08T04:19:05.309Z,99.73
2023-04-08T04:20:05.207Z,99.94
2023-04-08T04:21:05.199Z,99.22
2023-04-08T04:22:05.185Z,99.32
2023-04-08T04:23:05.179Z,99.63
2023-04-08T04:24:05.178Z,99.63
2023-04-08T04:25:05.145Z,99.68
2023-04-08T04:26:05.139Z,99.68
2023-04-08T04:27:05.129Z,99.99
2023-04-08T04:28:05.124Z,99.88
2023-04-08T04:29:05.112Z,99.99
2023-04-08T04:30:05.093Z,99.99
2023-04-08T04:31:05.140Z,99.73
2023-04-08T04:32:05.068Z,99.88
2023-04-08T04:33:05.170Z,99.94
2023-04-08T04:34:05.049Z,99.63
2023-04-08T04:35:05.039Z,99.94
2023-04-08T04:36:05.051Z,99.73
2023-04-08T04:37:05.180Z,99.99
2023-04-08T04:38:04.998Z,99.73
2023-04-08T04:39:04.989Z,99.32
2023-04-08T04:40:05.004Z,99.73
2023-04-08T04:41:04.970Z,99.32
2023-04-08T04:42:04.972Z,99.27
2023-04-08T04:43:04.952Z,99.43
2023-04-08T04:44:04.933Z,99.22
2023-04-08T04:45:04.928Z,99.52
2023-04-08T04:46:04.936Z,99.43
2023-04-08T04:47:04.919Z,99.22
2023-04-08T04:48:04.900Z,99.52
2023-04-08T04:49:04.881Z,99.32
2023-04-08T04:50:04.896Z,99.11
2023-04-08T04:51:04.854Z,99.43
2023-04-08T04:52:04.863Z,99.32
2023-04-08T04:53:04.842Z,99.43
2023-04-08T04:54:04.824Z,99.32
2023-04-08T04:55:04.817Z,99.32
2023-04-08T04:56:04.879Z,99.43
2023-04-08T04:57:04.812Z,99.32
2023-04-08T04:58:04.781Z,99.94
2023-04-08T04:59:04.777Z,99.69
2023-04-08T05:00:05.492Z,99.22
2023-04-08T05:01:04.748Z,99.07
2023-04-08T05:02:04.884Z,99.69
2023-04-08T05:03:04.846Z,99.48
2023-04-08T05:04:04.716Z,99.58
2023-04-08T05:05:04.914Z,99.38
2023-04-08T05:06:04.695Z,99.22
2023-04-08T05:07:04.692Z,99.07
2023-04-08T05:08:04.692Z,98.86
2023-04-08T05:09:04.665Z,98.66
2023-04-08T05:10:04.667Z,98.55
2023-04-08T05:11:04.642Z,98.97
2023-04-08T05:12:04.676Z,98.76
2023-04-08T05:13:04.640Z,98.97
2023-04-08T05:14:04.609Z,98.97
2023-04-08T05:15:04.615Z,98.66
2023-04-08T05:16:04.636Z,98.03
2023-04-08T05:17:04.594Z,98.55
2023-04-08T05:18:04.666Z,98.41
2023-04-08T05:19:04.561Z,98.66
2023-04-08T05:20:04.546Z,98.24
2023-04-08T05:21:04.545Z,98.24
2023-04-08T05:22:04.532Z,98.35
2023-04-08T05:23:04.542Z,98.55
2023-04-08T05:24:04.518Z,97.94
2023-04-08T05:25:04.531Z,98.03
2023-04-08T05:26:04.481Z,98.35
2023-04-08T05:27:04.472Z,98.45
2023-04-08T05:28:04.501Z,98.55
2023-04-08T05:29:04.463Z,98.86
2023-04-08T05:30:04.443Z,98.80
2023-04-08T05:31:04.518Z,98.86
2023-04-08T05:32:04.452Z,98.76
2023-04-08T05:33:04.515Z,99.07
2023-04-08T05:34:04.400Z,98.24
2023-04-08T05:35:04.384Z,98.86
2023-04-08T05:36:04.414Z,97.89
2023-04-08T05:37:04.364Z,98.66
2023-04-08T05:38:04.366Z,98.50
2023-04-08T05:39:04.340Z,98.41
2023-04-08T05:40:04.337Z,98.20
2023-04-08T05:41:04.330Z,98.24
2023-04-08T05:42:04.307Z,98.30
2023-04-08T05:43:04.310Z,97.99
2023-04-08T05:44:04.307Z,97.99
2023-04-08T05:45:04.280Z,97.78
2023-04-08T05:46:04.313Z,97.99
2023-04-08T05:47:04.440Z,97.78
2023-04-08T05:48:04.303Z,97.13
2023-04-08T05:49:04.236Z,97.27
2023-04-08T05:50:04.232Z,97.27
2023-04-08T05:51:04.208Z,96.86
2023-04-08T05:52:04.243Z,97.27
2023-04-08T05:53:04.186Z,97.13
2023-04-08T05:54:04.181Z,97.27
2023-04-08T05:55:04.171Z,97.13
2023-04-08T05:56:04.253Z,96.92
2023-04-08T05:57:04.144Z,96.46
2023-04-08T05:58:04.200Z,96.92
2023-04-08T05:59:04.112Z,96.67
2023-04-08T06:00:04.153Z,97.08
2023-04-08T06:01:04.099Z,96.46
2023-04-08T06:02:04.210Z,96.15
2023-04-08T06:03:04.551Z,96.20
2023-04-08T06:04:04.216Z,96.30
2023-04-08T06:05:04.088Z,96.30
2023-04-08T06:06:04.036Z,95.84
2023-04-08T06:07:04.021Z,96.15
2023-04-08T06:08:04.038Z,96.05
2023-04-08T06:09:04.003Z,95.95
2023-04-08T06:10:03.998Z,95.95
2023-04-08T06:11:04.003Z,95.84
2023-04-08T06:12:03.979Z,95.95
2023-04-08T06:13:03.952Z,95.95
2023-04-08T06:14:03.944Z,95.95
2023-04-08T06:15:03.935Z,96.05
2023-04-08T06:16:04.013Z,96.00
2023-04-08T06:17:04.001Z,96.11
2023-04-08T06:18:03.924Z,95.23
2023-04-08T06:19:03.887Z,96.05
2023-04-08T06:20:03.976Z,96.15
2023-04-08T06:21:03.861Z,95.12
2023-04-08T06:22:03.864Z,96.15
2023-04-08T06:23:03.851Z,95.84
2023-04-08T06:24:03.835Z,95.95
2023-04-08T06:25:03.820Z,96.00
2023-04-08T06:26:03.821Z,95.90
2023-04-08T06:27:03.794Z,95.80
2023-04-08T06:28:03.786Z,95.08
2023-04-08T06:29:03.776Z,95.18
2023-04-08T06:30:04.418Z,96.00
2023-04-08T06:31:03.799Z,94.87
2023-04-08T06:32:03.825Z,94.56
2023-04-08T06:33:03.792Z,94.98
2023-04-08T06:34:03.722Z,95.18
2023-04-08T06:35:03.722Z,95.08
2023-04-08T06:36:03.746Z,95.02
2023-04-08T06:37:03.683Z,95.95
2023-04-08T06:38:03.675Z,96.15
2023-04-08T06:39:03.663Z,96.11
2023-04-08T06:40:03.742Z,95.80
2023-04-08T06:41:03.644Z,96.06
2023-04-08T06:42:03.647Z,95.34
2023-04-08T06:43:03.619Z,95.45
2023-04-08T06:44:03.606Z,95.55
2023-04-08T06:45:03.608Z,95.24
2023-04-08T06:46:03.689Z,94.99
2023-04-08T06:47:03.591Z,94.89
2023-04-08T06:48:03.636Z,94.48
2023-04-08T06:49:03.551Z,94.27
2023-04-08T06:50:03.578Z,94.58
2023-04-08T06:51:03.531Z,94.27
2023-04-08T06:52:03.520Z,93.96
2023-04-08T06:53:03.521Z,94.07
2023-04-08T06:54:03.499Z,93.24
2023-04-08T06:55:03.499Z,93.55
2023-04-08T06:56:03.505Z,93.65
2023-04-08T06:57:03.481Z,94.02
2023-04-08T06:58:03.460Z,93.51
2023-04-08T06:59:03.798Z,92.99
2023-04-08T07:00:11.450Z,92.42
2023-04-08T07:01:03.596Z,92.99
2023-04-08T07:02:03.723Z,92.79
2023-04-08T07:03:03.497Z,92.38
2023-04-08T07:04:03.524Z,92.58
2023-04-08T07:05:03.516Z,92.13
2023-04-08T07:06:03.372Z,92.33
2023-04-08T07:07:03.356Z,91.55
2023-04-08T07:08:03.348Z,92.13
2023-04-08T07:09:03.338Z,91.72
2023-04-08T07:10:03.335Z,91.51
2023-04-08T07:11:03.332Z,91.61
2023-04-08T07:12:03.300Z,91.47
2023-04-08T07:13:03.290Z,91.16
2023-04-08T07:14:03.287Z,90.81
2023-04-08T07:15:03.280Z,90.20
2023-04-08T07:16:03.273Z,89.69
2023-04-08T07:17:03.282Z,89.99
2023-04-08T07:18:03.273Z,90.55
2023-04-08T07:19:03.220Z,90.95
2023-04-08T07:20:03.259Z,90.75
2023-04-08T07:21:03.215Z,91.27
2023-04-08T07:22:03.188Z,90.85
2023-04-08T07:23:03.178Z,90.65
2023-04-08T07:24:03.165Z,90.85
2023-04-08T07:25:03.184Z,90.65
2023-04-08T07:26:03.168Z,90.65
2023-04-08T07:27:03.153Z,90.75
2023-04-08T07:28:03.123Z,90.40
2023-04-08T07:29:03.118Z,90.44
2023-04-08T07:30:03.115Z,90.44
2023-04-08T07:31:03.144Z,89.93
2023-04-08T07:32:03.081Z,90.65
2023-04-08T07:33:03.071Z,90.85
2023-04-08T07:34:03.090Z,90.95
2023-04-08T07:35:03.069Z,90.75
2023-04-08T07:36:03.161Z,90.55
2023-04-08T07:37:03.017Z,90.20
2023-04-08T07:38:03.009Z,90.40
2023-04-08T07:39:04.053Z,90.20
2023-04-08T07:40:02.994Z,89.78
2023-04-08T07:41:03.003Z,89.64
2023-04-08T07:42:02.966Z,90.03
2023-04-08T07:43:02.954Z,90.44
2023-04-08T07:44:02.962Z,90.65
2023-04-08T07:45:02.957Z,90.48
2023-04-08T07:46:02.984Z,90.24
2023-04-08T07:47:02.909Z,90.55
2023-04-08T07:48:02.954Z,90.34
2023-04-08T07:49:02.881Z,90.14
2023-04-08T07:50:02.909Z,90.40
2023-04-08T07:51:08.419Z,90.26
2023-04-08T07:52:03.866Z,89.95
2023-04-08T07:53:02.852Z,89.13
2023-04-08T07:54:02.834Z,89.03
2023-04-08T07:55:02.818Z,89.19
2023-04-08T07:56:03.015Z,88.43
2023-04-08T07:57:02.791Z,87.85
2023-04-08T07:58:02.790Z,87.51
2023-04-08T07:59:02.815Z,87.76
2023-04-08T08:00:02.790Z,88.06
2023-04-08T08:01:02.764Z,87.65
2023-04-08T08:02:02.773Z,87.85
2023-04-08T08:03:02.783Z,87.76
2023-04-08T08:04:02.952Z,87.82
2023-04-08T08:05:02.799Z,87.61
2023-04-08T08:06:02.710Z,87.61
2023-04-08T08:07:02.691Z,86.79
2023-04-08T08:08:02.696Z,86.38
2023-04-08T08:09:02.695Z,86.48
2023-04-08T08:10:02.653Z,86.48
2023-04-08T08:11:02.665Z,86.69
2023-04-08T08:12:02.628Z,86.44
2023-04-08T08:13:02.655Z,86.24
2023-04-08T08:14:03.467Z,86.34
2023-04-08T08:15:02.602Z,85.89
2023-04-08T08:16:02.651Z,85.89
2023-04-08T08:17:02.803Z,85.79
2023-04-08T08:18:02.628Z,85.99
2023-04-08T08:19:02.555Z,85.34
2023-04-08T08:20:02.556Z,84.52
2023-04-08T08:21:02.560Z,83.73
2023-04-08T08:22:03.471Z,83.10
2023-04-08T08:23:02.508Z,81.39
2023-04-08T08:24:02.519Z,79.55
2023-04-08T08:25:02.505Z,78.88
2023-04-08T08:26:02.485Z,79.66
2023-04-08T08:27:02.481Z,79.39
2023-04-08T08:28:02.458Z,79.35
2023-04-08T08:29:02.449Z,78.84
2023-04-08T08:30:02.444Z,78.09
2023-04-08T08:31:02.451Z,77.89
2023-04-08T08:32:02.422Z,77.98
2023-04-08T08:33:02.468Z,77.03
2023-04-08T08:34:02.390Z,76.28
2023-04-08T08:35:02.382Z,76.28
2023-04-08T08:36:02.702Z,76.49
2023-04-08T08:37:02.353Z,75.57
2023-04-08T08:38:02.340Z,74.35
2023-04-08T08:39:02.349Z,74.58
2023-04-08T08:40:02.343Z,73.50
2023-04-08T08:41:02.330Z,71.87
2023-04-08T08:42:02.295Z,72.69
2023-04-08T08:43:02.292Z,71.64
2023-04-08T08:44:02.284Z,72.04
2023-04-08T08:45:02.279Z,73.50
2023-04-08T08:46:02.268Z,76.29
2023-04-08T08:47:02.399Z,80.69
2023-04-08T08:48:03.125Z,82.27
2023-04-08T08:49:02.223Z,83.39
2023-04-08T08:50:02.227Z,83.60
2023-04-08T08:51:02.278Z,84.07
2023-04-08T08:52:02.189Z,83.19
2023-04-08T08:53:02.187Z,84.36
2023-04-08T08:54:02.178Z,84.46
2023-04-08T08:55:04.434Z,84.22
2023-04-08T08:56:16.484Z,83.97
2023-04-08T08:57:03.125Z,83.56
2023-04-08T08:58:02.162Z,83.25
2023-04-08T08:59:02.113Z,83.70
2023-04-08T09:00:02.165Z,84.70
2023-04-08T09:01:02.085Z,86.07
2023-04-08T09:02:02.180Z,86.79
2023-04-08T09:03:02.203Z,86.65
2023-04-08T09:04:02.156Z,86.44
2023-04-08T09:05:02.338Z,86.55
2023-04-08T09:06:02.148Z,86.04
2023-04-08T09:07:02.021Z,85.85
2023-04-08T09:08:02.006Z,85.28
2023-04-08T09:09:02.009Z,85.69
2023-04-08T09:10:02.078Z,85.83
2023-04-08T09:11:01.995Z,86.69
2023-04-08T09:12:01.985Z,87.47
2023-04-08T09:13:01.969Z,87.26
2023-04-08T09:14:01.943Z,86.91
2023-04-08T09:15:01.927Z,86.20
2023-04-08T09:16:02.063Z,85.63
2023-04-08T09:17:01.911Z,85.42
2023-04-08T09:18:01.982Z,85.72
2023-04-08T09:19:01.883Z,85.93
2023-04-08T09:20:01.885Z,85.63
2023-04-08T09:21:02.002Z,85.25
2023-04-08T09:22:02.052Z,86.28
2023-04-08T09:23:01.838Z,86.48
2023-04-08T09:24:01.865Z,86.48
2023-04-08T09:25:01.815Z,86.55
2023-04-08T09:26:01.808Z,86.44
2023-04-08T09:27:01.794Z,86.24
2023-04-08T09:28:01.826Z,86.04
2023-04-08T09:29:08.491Z,85.83
2023-04-08T09:30:02.775Z,85.72
2023-04-08T09:31:01.752Z,85.83
2023-04-08T09:32:01.899Z,86.14
2023-04-08T09:33:01.785Z,86.48
2023-04-08T09:34:01.802Z,86.69
2023-04-08T09:35:01.721Z,86.28
2023-04-08T09:36:01.816Z,86.28
2023-04-08T09:37:01.694Z,86.18
2023-04-08T09:38:01.689Z,86.24
2023-04-08T09:39:01.735Z,85.63
2023-04-08T09:40:01.657Z,86.48
2023-04-08T09:41:01.662Z,87.20
2023-04-08T09:42:01.656Z,87.61
2023-04-08T09:43:01.645Z,87.85
2023-04-08T09:44:01.640Z,87.92
2023-04-08T09:45:01.600Z,87.45
2023-04-08T09:46:01.693Z,87.55
2023-04-08T09:47:01.584Z,87.26
2023-04-08T09:48:01.620Z,85.96
2023-04-08T09:49:01.584Z,84.65
2023-04-08T09:50:01.540Z,80.99
2023-04-08T09:51:01.529Z,78.02
2023-04-08T09:52:01.533Z,75.23
2023-04-08T09:53:01.505Z,74.65
2023-04-08T09:54:01.507Z,74.62
2023-04-08T09:55:01.540Z,72.38
2023-04-08T09:56:01.478Z,72.75
2023-04-08T09:57:01.468Z,72.17
2023-04-08T09:58:01.450Z,72.08
2023-04-08T09:59:01.476Z,72.25
2023-04-08T10:00:01.474Z,73.71
2023-04-08T10:01:01.445Z,74.79
2023-04-08T10:02:01.605Z,75.81
2023-04-08T10:03:01.603Z,76.05
2023-04-08T10:04:01.536Z,76.09
2023-04-08T10:05:01.421Z,76.22
2023-04-08T10:06:01.365Z,75.40
2023-04-08T10:07:01.443Z,72.31
2023-04-08T10:08:01.345Z,69.71
2023-04-08T10:09:01.347Z,67.14
2023-04-08T10:10:01.322Z,66.58
2023-04-08T10:11:01.312Z,64.76
2023-04-08T10:12:02.042Z,65.59
2023-04-08T10:13:01.282Z,66.00
2023-04-08T10:14:01.372Z,68.83
2023-04-08T10:15:01.293Z,67.38
2023-04-08T10:16:01.276Z,66.33
2023-04-08T10:17:01.362Z,65.56
2023-04-08T10:18:01.296Z,63.71
2023-04-08T10:19:01.253Z,64.09
2023-04-08T10:20:01.222Z,63.25
2023-04-08T10:21:01.221Z,61.71
2023-04-08T10:22:01.207Z,61.96
2023-04-08T10:23:01.177Z,62.81
2023-04-08T10:24:01.176Z,63.41
2023-04-08T10:25:01.237Z,63.34
2023-04-08T10:26:01.339Z,63.64
2023-04-08T10:27:01.147Z,63.50
2023-04-08T10:28:01.146Z,65.59
2023-04-08T10:29:01.148Z,66.33
2023-04-08T10:30:01.097Z,67.17
2023-04-08T10:31:01.102Z,69.43
2023-04-08T10:32:01.192Z,70.51
2023-04-08T10:33:01.177Z,74.25
2023-04-08T10:34:01.048Z,76.06
2023-04-08T10:35:01.053Z,76.26
2023-04-08T10:36:01.056Z,74.45
2023-04-08T10:37:01.020Z,74.90
2023-04-08T10:38:01.055Z,74.66
2023-04-08T10:39:01.014Z,74.01
2023-04-08T10:40:01.078Z,74.08
2023-04-08T10:41:00.976Z,73.91
2023-04-08T10:42:00.965Z,74.25
2023-04-08T10:43:00.996Z,74.62
2023-04-08T10:44:00.955Z,74.42
2023-04-08T10:45:00.998Z,74.42
2023-04-08T10:46:01.000Z,74.52
2023-04-08T10:47:00.924Z,73.40
2023-04-08T10:48:00.996Z,72.34
2023-04-08T10:49:00.895Z,71.97
2023-04-08T10:50:00.887Z,71.73
2023-04-08T10:51:01.053Z,70.38
2023-04-08T10:52:00.858Z,69.16
2023-04-08T10:53:00.835Z,71.36
2023-04-08T10:54:00.825Z,71.53
2023-04-08T10:55:00.832Z,70.25
2023-04-08T10:56:00.807Z,67.95
2023-04-08T10:57:00.946Z,67.21
2023-04-08T10:58:00.780Z,67.07
2023-04-08T10:59:00.770Z,69.60
2023-04-08T11:00:00.761Z,69.02
2023-04-08T11:01:00.771Z,69.09
2023-04-08T11:02:00.884Z,69.40
2023-04-08T11:03:00.807Z,68.25
2023-04-08T11:04:00.802Z,67.71
2023-04-08T11:05:00.736Z,67.33
2023-04-08T11:06:00.692Z,68.25
2023-04-08T11:07:00.713Z,68.35
2023-04-08T11:08:00.697Z,68.75
2023-04-08T11:09:00.678Z,70.82
2023-04-08T11:10:00.663Z,70.92
2023-04-08T11:11:00.669Z,71.36
2023-04-08T11:12:00.641Z,71.43
2023-04-08T11:13:00.624Z,71.56
2023-04-08T11:14:00.608Z,72.52
2023-04-08T11:15:00.598Z,70.99
2023-04-08T11:16:00.787Z,70.95
2023-04-08T11:17:00.589Z,70.68
2023-04-08T11:18:00.653Z,69.97
2023-04-08T11:19:00.554Z,70.58
2023-04-08T11:20:00.568Z,70.86
2023-04-08T11:21:00.599Z,70.75
2023-04-08T11:22:00.533Z,70.82
2023-04-08T11:23:00.511Z,70.86
2023-04-08T11:24:00.494Z,71.16
2023-04-08T11:25:00.496Z,70.86
2023-04-08T11:26:00.478Z,71.26
2023-04-08T11:27:00.479Z,70.38
2023-04-08T11:28:01.051Z,68.79
2023-04-08T11:29:00.439Z,68.55
2023-04-08T11:30:00.428Z,67.71
2023-04-08T11:31:00.558Z,67.30
2023-04-08T11:32:00.411Z,67.30
2023-04-08T11:33:00.489Z,67.64
2023-04-08T11:34:00.402Z,67.20
2023-04-08T11:35:00.690Z,66.60
2023-04-08T11:36:00.429Z,65.68
2023-04-08T11:37:00.354Z,65.34
2023-04-08T11:38:00.351Z,65.21
2023-04-08T11:39:00.333Z,64.10
2023-04-08T11:40:00.492Z,63.89
2023-04-08T11:41:00.425Z,64.43
2023-04-08T11:42:00.292Z,65.65
2023-04-08T11:43:00.281Z,65.99
2023-04-08T11:44:00.268Z,66.83
2023-04-08T11:45:00.287Z,66.63
2023-04-08T11:46:00.288Z,66.42
2023-04-08T11:47:00.290Z,66.29
2023-04-08T11:48:00.844Z,65.95
2023-04-08T11:49:00.215Z,65.65
2023-04-08T11:50:00.218Z,64.61
2023-04-08T11:51:00.194Z,63.83
2023-04-08T11:52:00.270Z,62.85
2023-04-08T11:53:00.178Z,63.06
2023-04-08T11:54:00.166Z,63.11
2023-04-08T11:55:00.161Z,63.14
2023-04-08T11:56:00.203Z,63.85
2023-04-08T11:57:00.156Z,63.42
2023-04-08T11:58:00.141Z,62.98
2023-04-08T11:59:00.153Z,62.46
2023-04-08T12:00:00.116Z,60.14
2023-04-08T12:01:00.119Z,58.27
2023-04-08T12:02:00.206Z,57.64
2023-04-08T12:03:00.180Z,56.81
2023-04-08T12:04:00.563Z,55.41
2023-04-08T12:05:00.148Z,56.12
2023-04-08T12:06:00.037Z,55.44
2023-04-08T12:07:00.020Z,55.94
2023-04-08T12:08:00.030Z,55.74
2023-04-08T12:08:59.996Z,56.48
2023-04-08T12:09:59.979Z,56.61
2023-04-08T12:11:12.952Z,56.81
2023-04-08T12:12:00.956Z,56.96
2023-04-08T12:12:59.947Z,57.20
2023-04-08T12:13:59.939Z,58.26
2023-04-08T12:14:59.935Z,60.78
2023-04-08T12:15:59.948Z,62.30
2023-04-08T12:16:59.904Z,62.71
2023-04-08T12:17:59.947Z,63.01
2023-04-08T12:18:59.881Z,62.98
2023-04-08T12:19:59.886Z,62.14
2023-04-08T12:20:59.936Z,60.93
2023-04-08T12:21:59.847Z,59.99
2023-04-08T12:22:59.972Z,57.70
2023-04-08T12:23:59.845Z,55.90
2023-04-08T12:24:59.846Z,54.63
2023-04-08T12:25:59.820Z,53.27
2023-04-08T12:26:59.801Z,52.31
2023-04-08T12:27:59.981Z,51.20
2023-04-08T12:28:59.783Z,51.05
2023-04-08T12:29:59.780Z,52.41
2023-04-08T12:30:59.760Z,53.50
2023-04-08T12:31:59.790Z,55.02
2023-04-08T12:32:59.760Z,54.46
2023-04-08T12:33:59.748Z,53.52
2023-04-08T12:34:59.713Z,53.12
2023-04-08T12:35:59.756Z,53.42
2023-04-08T12:36:59.689Z,52.82
2023-04-08T12:37:59.676Z,54.56
2023-04-08T12:38:59.694Z,54.74
2023-04-08T12:39:59.699Z,54.84
2023-04-08T12:40:59.642Z,55.65
2023-04-08T12:41:59.650Z,54.51
2023-04-08T12:42:59.642Z,54.71
2023-04-08T12:43:59.616Z,53.70
2023-04-08T12:44:59.604Z,53.55
2023-04-08T12:45:59.592Z,53.17
2023-04-08T12:46:59.670Z,53.17
2023-04-08T12:47:59.614Z,52.03
2023-04-08T12:49:04.337Z,52.92
2023-04-08T12:50:00.572Z,52.26
2023-04-08T12:50:59.534Z,50.98
2023-04-08T12:51:59.532Z,50.40